createdAt,value
2019-03-24T00:07:29.161Z,44.53
2019-03-24T00:17:29.951Z,45.33
2019-03-24T00:27:30.837Z,42.17
2019-03-24T00:37:31.632Z,41.93
2019-03-24T00:47:32.470Z,39.27
2019-03-24T00:57:33.233Z,42.10
2019-03-24T01:07:35.182Z,39.43
2019-03-24T01:17:36.855Z,36.87
2019-03-24T01:27:37.742Z,36.60
2019-03-24T01:37:38.990Z,34.70
2019-03-24T01:47:39.893Z,32.13
2019-03-24T01:57:40.656Z,31.37
2019-03-24T02:07:41.584Z,36.40
2019-03-24T02:17:42.362Z,32.67
2019-03-24T02:27:43.246Z,28.97
2019-03-24T02:37:44.075Z,35.23
2019-03-24T02:47:44.784Z,33.30
2019-03-24T02:57:45.511Z,32.43
2019-03-24T03:07:46.354Z,33.33
2019-03-24T03:17:47.085Z,33.93
2019-03-24T03:27:47.862Z,36.60
2019-03-24T03:37:49.602Z,38.97
2019-03-24T03:47:50.282Z,32.73
2019-03-24T03:57:52.429Z,33.67
2019-03-24T04:07:53.393Z,37.30
2019-03-24T04:17:54.084Z,32.87
2019-03-24T04:27:54.928Z,33.90
2019-03-24T04:37:57.697Z,33.53
2019-03-24T04:47:58.476Z,36.13
2019-03-24T04:57:59.272Z,32.03
2019-03-24T05:08:00.252Z,37.40
2019-03-24T05:18:01.076Z,37.27
2019-03-24T05:28:03.026Z,38.77
2019-03-24T05:38:03.913Z,42.67
2019-03-24T05:48:04.668Z,38.30
2019-03-24T05:58:05.479Z,41.10
2019-03-24T06:08:06.310Z,40.23
2019-03-24T06:18:06.965Z,39.23
2019-03-24T06:28:07.661Z,39.70
2019-03-24T06:38:10.332Z,42.27
2019-03-24T06:48:13.214Z,41.73
2019-03-24T06:58:14.124Z,40.50
2019-03-24T07:08:14.968Z,40.73
2019-03-24T07:18:16.808Z,41.47
2019-03-24T07:28:17.618Z,41.80
2019-03-24T07:38:19.452Z,41.70
2019-03-24T07:48:21.275Z,38.10
2019-03-24T07:58:22.066Z,37.97
2019-03-24T08:08:23.696Z,37.03
2019-03-24T08:18:29.963Z,36.93
2019-03-24T08:28:29.209Z,38.97
2019-03-24T08:38:32.029Z,38.93
2019-03-24T08:48:40.951Z,38.40
2019-03-24T08:58:40.617Z,36.63
2019-03-24T09:08:41.578Z,38.00
2019-03-24T09:18:52.700Z,34.03
2019-03-24T09:28:56.318Z,47.53
2019-03-24T09:38:57.065Z,32.00
2019-03-24T09:49:03.171Z,29.37
2019-03-24T09:59:00.724Z,28.10
2019-03-24T10:09:01.479Z,28.27
2019-03-24T10:19:02.221Z,27.97
2019-03-24T10:29:10.817Z,29.93
2019-03-24T10:39:18.393Z,26.97
2019-03-24T10:49:25.004Z,28.63
2019-03-24T10:59:24.949Z,28.10
2019-03-24T11:09:25.647Z,28.40
2019-03-24T11:19:35.408Z,27.83
2019-03-24T11:29:29.219Z,29.50
2019-03-24T11:39:29.958Z,26.73
2019-03-24T11:49:33.779Z,25.80
2019-03-24T11:59:34.666Z,23.83
2019-03-24T12:09:41.129Z,24.60
2019-03-24T12:19:41.927Z,24.43
2019-03-24T12:29:42.716Z,24.40
2019-03-24T12:39:43.483Z,22.77
2019-03-24T12:49:45.304Z,21.93
2019-03-24T12:59:46.205Z,20.63
2019-03-24T13:09:46.961Z,20.77
2019-03-24T13:19:48.501Z,21.13
2019-03-24T13:29:49.828Z,20.70
2019-03-24T13:39:50.639Z,20.57
2019-03-24T13:49:51.382Z,20.80
2019-03-24T13:59:53.155Z,21.30
2019-03-24T14:09:59.933Z,19.77
2019-03-24T14:20:00.811Z,16.73
2019-03-24T14:30:04.206Z,16.87
2019-03-24T14:40:06.055Z,15.73
2019-03-24T14:50:09.954Z,15.13
2019-03-24T15:00:36.236Z,14.97
2019-03-24T15:10:38.819Z,13.67
2019-03-24T15:20:43.714Z,12.70
2019-03-24T15:30:44.503Z,13.47
2019-03-24T15:40:45.289Z,12.27
2019-03-24T15:50:47.121Z,12.67
2019-03-24T16:00:52.802Z,16.07
2019-03-24T16:10:59.017Z,16.97
2019-03-24T16:20:58.179Z,17.63
2019-03-24T16:30:59.086Z,17.87
2019-03-24T16:40:59.926Z,16.77
2019-03-24T16:51:01.597Z,13.63
2019-03-24T17:01:02.337Z,11.13
2019-03-24T17:11:05.213Z,7.53
2019-03-24T17:21:05.972Z,7.80
2019-03-24T17:31:09.768Z,7.50
2019-03-24T17:41:12.556Z,7.03
2019-03-24T17:51:15.283Z,7.60
2019-03-24T18:01:19.649Z,7.40
2019-03-24T18:11:21.385Z,6.33
2019-03-24T18:21:22.214Z,6.43
2019-03-24T18:31:24.068Z,5.30
2019-03-24T18:41:24.892Z,4.17
2019-03-24T18:51:27.757Z,6.60
2019-03-24T19:01:28.614Z,7.10
2019-03-24T19:11:29.388Z,4.53
2019-03-24T19:21:31.335Z,6.77
2019-03-24T19:31:34.041Z,5.20
2019-03-24T19:41:36.850Z,3.93
2019-03-24T19:51:40.791Z,4.90
2019-03-24T20:01:42.546Z,2.87
2019-03-24T20:11:44.320Z,2.47
2019-03-24T20:21:45.318Z,2.07
2019-03-24T20:31:46.178Z,2.43
2019-03-24T20:41:46.885Z,1.53
2019-03-24T20:51:49.620Z,1.60
2019-03-24T21:01:51.344Z,1.60
2019-03-24T21:11:52.182Z,2.00
2019-03-24T21:21:52.914Z,1.20
2019-03-24T21:31:55.261Z,1.40
2019-03-24T21:41:56.289Z,1.20
2019-03-24T21:51:58.019Z,1.80
2019-03-24T22:01:59.771Z,1.27
2019-03-24T22:12:00.658Z,1.77
2019-03-24T22:22:01.362Z,1.43
2019-03-24T22:32:02.024Z,1.77
2019-03-24T22:42:02.897Z,1.40
2019-03-24T22:52:07.411Z,1.80
2019-03-24T23:02:13.214Z,1.70
2019-03-24T23:12:13.899Z,2.27
2019-03-24T23:22:14.644Z,2.27
2019-03-24T23:32:15.389Z,2.40
2019-03-24T23:42:16.217Z,2.70
2019-03-24T23:52:17.057Z,2.67
